sensor_id;sensor_type;location;lat;lon;timestamp;pressure;altitude;pressure_sealevel;temperature;humidity
32298;BME280;18782;48.984;8.548;2022-08-21T00:01:42;100071.28;;;17.36;65.11
32298;BME280;18782;48.984;8.548;2022-08-21T00:04:12;100069.53;;;17.35;65.40
32298;BME280;18782;48.984;8.548;2022-08-21T00:06:48;100074.75;;;17.44;65.89
32298;BME280;18782;48.984;8.548;2022-08-21T00:09:18;100070.38;;;17.53;65.25
32298;BME280;18782;48.984;8.548;2022-08-21T00:11:47;100066.03;;;17.48;66.10
32298;BME280;18782;48.984;8.548;2022-08-21T00:14:16;100071.25;;;17.55;65.24
32298;BME280;18782;48.984;8.548;2022-08-21T00:16:44;100064.28;;;17.54;64.94
32298;BME280;18782;48.984;8.548;2022-08-21T00:19:11;100062.59;;;17.43;65.20
32298;BME280;18782;48.984;8.548;2022-08-21T00:21:39;100069.56;;;17.26;65.72
32298;BME280;18782;48.984;8.548;2022-08-21T00:24:10;100065.22;;;17.28;65.76
32298;BME280;18782;48.984;8.548;2022-08-21T00:26:39;100058.28;;;17.27;65.91
32298;BME280;18782;48.984;8.548;2022-08-21T00:29:06;100060.88;;;17.45;66.42
32298;BME280;18782;48.984;8.548;2022-08-21T00:31:34;100055.66;;;17.42;65.76
32298;BME280;18782;48.984;8.548;2022-08-21T00:34:02;100056.53;;;17.40;65.45
32298;BME280;18782;48.984;8.548;2022-08-21T00:36:30;100045.25;;;17.36;65.78
32298;BME280;18782;48.984;8.548;2022-08-21T00:38:58;100044.41;;;17.22;66.01
32298;BME280;18782;48.984;8.548;2022-08-21T00:41:26;100046.16;;;17.14;66.26
32298;BME280;18782;48.984;8.548;2022-08-21T00:44:07;100041.81;;;17.10;66.97
32298;BME280;18782;48.984;8.548;2022-08-21T00:46:37;100047.88;;;17.01;67.22
32298;BME280;18782;48.984;8.548;2022-08-21T00:49:05;100040.97;;;16.97;67.91
32298;BME280;18782;48.984;8.548;2022-08-21T00:51:37;100047.88;;;17.01;68.35
32298;BME280;18782;48.984;8.548;2022-08-21T00:54:06;100036.63;;;17.13;67.65
32298;BME280;18782;48.984;8.548;2022-08-21T00:56:45;100043.56;;;17.23;67.35
32298;BME280;18782;48.984;8.548;2022-08-21T00:59:15;100036.63;;;17.19;66.75
32298;BME280;18782;48.984;8.548;2022-08-21T01:01:43;100044.44;;;17.02;67.11
32298;BME280;18782;48.984;8.548;2022-08-21T01:04:11;100041.84;;;16.82;68.73
32298;BME280;18782;48.984;8.548;2022-08-21T01:06:39;100037.47;;;16.84;68.32
32298;BME280;18782;48.984;8.548;2022-08-21T01:09:07;100050.47;;;16.90;68.29
32298;BME280;18782;48.984;8.548;2022-08-21T01:11:35;100047.03;;;16.91;68.31
32298;BME280;18782;48.984;8.548;2022-08-21T01:14:03;100040.94;;;16.80;68.32
32298;BME280;18782;48.984;8.548;2022-08-21T01:16:32;100045.28;;;16.77;68.56
32298;BME280;18782;48.984;8.548;2022-08-21T01:19:00;100040.09;;;16.81;69.05
32298;BME280;18782;48.984;8.548;2022-08-21T01:21:29;100045.28;;;16.93;68.93
32298;BME280;18782;48.984;8.548;2022-08-21T01:23:57;100046.16;;;17.02;67.65
32298;BME280;18782;48.984;8.548;2022-08-21T01:26:27;100040.09;;;16.87;68.40
32298;BME280;18782;48.984;8.548;2022-08-21T01:29:05;100045.31;;;16.92;68.86
32298;BME280;18782;48.984;8.548;2022-08-21T01:31:34;100044.41;;;16.81;68.24
32298;BME280;18782;48.984;8.548;2022-08-21T01:34:04;100042.69;;;16.90;68.63
32298;BME280;18782;48.984;8.548;2022-08-21T01:36:34;100040.97;;;16.82;68.18
32298;BME280;18782;48.984;8.548;2022-08-21T01:39:03;100045.28;;;16.75;68.73
32298;BME280;18782;48.984;8.548;2022-08-21T01:41:31;100034.03;;;16.82;68.43
32298;BME280;18782;48.984;8.548;2022-08-21T01:43:58;100046.13;;;16.66;68.78
32298;BME280;18782;48.984;8.548;2022-08-21T01:46:26;100040.88;;;16.48;69.52
32298;BME280;18782;48.984;8.548;2022-08-21T01:48:54;100035.63;;;16.33;70.00
32298;BME280;18782;48.984;8.548;2022-08-21T01:51:22;100039.06;;;16.23;71.76
32298;BME280;18782;48.984;8.548;2022-08-21T01:53:51;100038.22;;;16.19;71.28
32298;BME280;18782;48.984;8.548;2022-08-21T01:56:18;100046.84;;;16.12;71.12
32298;BME280;18782;48.984;8.548;2022-08-21T01:58:47;100041.63;;;16.12;71.93
32298;BME280;18782;48.984;8.548;2022-08-21T02:01:15;100041.63;;;16.12;71.31
32298;BME280;18782;48.984;8.548;2022-08-21T02:03:43;100035.59;;;16.11;71.87
32298;BME280;18782;48.984;8.548;2022-08-21T02:06:13;100030.38;;;16.13;71.36
32298;BME280;18782;48.984;8.548;2022-08-21T02:08:41;100032.97;;;15.98;71.93
32298;BME280;18782;48.984;8.548;2022-08-21T02:11:10;100038.16;;;16.04;71.81
32298;BME280;18782;48.984;8.548;2022-08-21T02:13:38;100034.69;;;16.02;71.76
32298;BME280;18782;48.984;8.548;2022-08-21T02:16:05;100027.78;;;16.10;72.80
32298;BME280;18782;48.984;8.548;2022-08-21T02:18:34;100027.81;;;16.16;71.96
32298;BME280;18782;48.984;8.548;2022-08-21T02:21:03;100031.25;;;16.04;71.25
32298;BME280;18782;48.984;8.548;2022-08-21T02:23:31;100029.47;;;15.96;71.49
32298;BME280;18782;48.984;8.548;2022-08-21T02:26:00;100019.03;;;15.77;72.77
32298;BME280;18782;48.984;8.548;2022-08-21T02:28:30;100012.06;;;15.73;73.06
32298;BME280;18782;48.984;8.548;2022-08-21T02:30:58;100012.97;;;15.81;73.64
32298;BME280;18782;48.984;8.548;2022-08-21T02:33:28;100027.75;;;15.95;72.51
32298;BME280;18782;48.984;8.548;2022-08-21T02:35:56;100026.00;;;15.97;72.79
32298;BME280;18782;48.984;8.548;2022-08-21T02:38:27;100017.34;;;15.95;71.92
32298;BME280;18782;48.984;8.548;2022-08-21T02:40:56;100013.88;;;15.94;72.09
32298;BME280;18782;48.984;8.548;2022-08-21T02:43:26;100025.97;;;15.90;73.38
32298;BME280;18782;48.984;8.548;2022-08-21T02:45:57;100019.88;;;15.81;72.32
32298;BME280;18782;48.984;8.548;2022-08-21T02:48:27;100023.38;;;15.84;72.41
32298;BME280;18782;48.984;8.548;2022-08-21T02:50:57;100018.97;;;15.70;73.08
32298;BME280;18782;48.984;8.548;2022-08-21T02:53:25;100013.72;;;15.62;72.92
32298;BME280;18782;48.984;8.548;2022-08-21T02:55:54;100028.34;;;15.48;73.49
32298;BME280;18782;48.984;8.548;2022-08-21T02:58:24;100024.94;;;15.58;73.66
32298;BME280;18782;48.984;8.548;2022-08-21T03:00:52;100018.88;;;15.60;74.06
32298;BME280;18782;48.984;8.548;2022-08-21T03:03:21;100019.84;;;15.70;74.10
32298;BME280;18782;48.984;8.548;2022-08-21T03:05:50;100020.72;;;15.66;72.60
32298;BME280;18782;48.984;8.548;2022-08-21T03:08:18;100018.88;;;15.59;73.50
32298;BME280;18782;48.984;8.548;2022-08-21T03:10:51;100027.50;;;15.52;74.41
32298;BME280;18782;48.984;8.548;2022-08-21T03:13:19;100031.78;;;15.40;73.67
32298;BME280;18782;48.984;8.548;2022-08-21T03:15:48;100025.72;;;15.45;73.91
32298;BME280;18782;48.984;8.548;2022-08-21T03:18:17;100028.31;;;15.43;73.84
32298;BME280;18782;48.984;8.548;2022-08-21T03:20:46;100024.00;;;15.40;74.26
32298;BME280;18782;48.984;8.548;2022-08-21T03:23:15;100024.84;;;15.43;73.05
32298;BME280;18782;48.984;8.548;2022-08-21T03:25:46;100030.09;;;15.52;73.70
32298;BME280;18782;48.984;8.548;2022-08-21T03:28:17;100029.09;;;15.34;74.23
32298;BME280;18782;48.984;8.548;2022-08-21T03:30:47;100030.88;;;15.35;74.11
32298;BME280;18782;48.984;8.548;2022-08-21T03:33:16;100026.50;;;15.33;73.54
32298;BME280;18782;48.984;8.548;2022-08-21T03:35:58;100026.50;;;15.31;73.77
32298;BME280;18782;48.984;8.548;2022-08-21T03:38:28;100023.28;;;15.64;73.55
32298;BME280;18782;48.984;8.548;2022-08-21T03:40:57;100025.94;;;15.78;73.47
32298;BME280;18782;48.984;8.548;2022-08-21T03:43:25;100031.13;;;15.78;72.88
32298;BME280;18782;48.984;8.548;2022-08-21T03:45:58;100031.09;;;15.75;71.78
32298;BME280;18782;48.984;8.548;2022-08-21T03:48:25;100038.78;;;15.60;72.87
32298;BME280;18782;48.984;8.548;2022-08-21T03:50:54;100040.41;;;15.44;72.94
32298;BME280;18782;48.984;8.548;2022-08-21T03:53:23;100032.56;;;15.30;73.56
32298;BME280;18782;48.984;8.548;2022-08-21T03:55:51;100030.84;;;15.32;74.60
32298;BME280;18782;48.984;8.548;2022-08-21T03:58:22;100028.13;;;15.16;73.89
32298;BME280;18782;48.984;8.548;2022-08-21T04:00:52;100034.09;;;15.05;74.70
32298;BME280;18782;48.984;8.548;2022-08-21T04:03:22;100034.88;;;14.94;75.20
32298;BME280;18782;48.984;8.548;2022-08-21T04:05:49;100033.16;;;14.94;74.36
32298;BME280;18782;48.984;8.548;2022-08-21T04:08:18;100048.66;;;14.88;76.36
32298;BME280;18782;48.984;8.548;2022-08-21T04:10:48;100042.66;;;14.94;75.63
32298;BME280;18782;48.984;8.548;2022-08-21T04:13:17;100047.94;;;15.07;75.04
32298;BME280;18782;48.984;8.548;2022-08-21T04:15:45;100051.34;;;15.00;75.61
32298;BME280;18782;48.984;8.548;2022-08-21T04:18:12;100054.91;;;15.13;74.68
32298;BME280;18782;48.984;8.548;2022-08-21T04:20:42;100055.84;;;15.20;74.15
32298;BME280;18782;48.984;8.548;2022-08-21T04:23:16;100052.34;;;15.16;75.23
32298;BME280;18782;48.984;8.548;2022-08-21T04:25:52;100062.78;;;15.28;74.16
32298;BME280;18782;48.984;8.548;2022-08-21T04:28:20;100056.84;;;15.42;73.90
32298;BME280;18782;48.984;8.548;2022-08-21T04:30:54;100065.53;;;15.47;73.75
32298;BME280;18782;48.984;8.548;2022-08-21T04:33:22;100064.66;;;15.46;72.84
32298;BME280;18782;48.984;8.548;2022-08-21T04:35:50;100072.47;;;15.54;73.61
32298;BME280;18782;48.984;8.548;2022-08-21T04:38:18;100079.53;;;15.67;72.37
32298;BME280;18782;48.984;8.548;2022-08-21T04:40:47;100076.06;;;15.67;71.59
32298;BME280;18782;48.984;8.548;2022-08-21T04:43:16;100070.69;;;15.44;73.01
32298;BME280;18782;48.984;8.548;2022-08-21T04:45:46;100069.69;;;15.29;72.54
32298;BME280;18782;48.984;8.548;2022-08-21T04:48:17;100068.78;;;15.21;72.76
32298;BME280;18782;48.984;8.548;2022-08-21T04:50:48;100072.28;;;15.29;73.97
32298;BME280;18782;48.984;8.548;2022-08-21T04:53:19;100076.63;;;15.26;73.08
32298;BME280;18782;48.984;8.548;2022-08-21T04:55:48;100083.56;;;15.33;73.93
32298;BME280;18782;48.984;8.548;2022-08-21T04:58:20;100086.19;;;15.37;74.06
32298;BME280;18782;48.984;8.548;2022-08-21T05:00:52;100076.75;;;15.47;73.33
32298;BME280;18782;48.984;8.548;2022-08-21T05:03:21;100083.84;;;15.68;73.21
32298;BME280;18782;48.984;8.548;2022-08-21T05:05:50;100083.84;;;15.67;72.56
32298;BME280;18782;48.984;8.548;2022-08-21T05:08:19;100086.44;;;15.68;71.85
32298;BME280;18782;48.984;8.548;2022-08-21T05:10:49;100095.06;;;15.65;71.87
32298;BME280;18782;48.984;8.548;2022-08-21T05:13:21;100097.56;;;15.52;71.46
32298;BME280;18782;48.984;8.548;2022-08-21T05:15:49;100099.91;;;15.24;72.89
32298;BME280;18782;48.984;8.548;2022-08-21T05:18:16;100101.63;;;15.19;73.13
32298;BME280;18782;48.984;8.548;2022-08-21T05:20:44;100103.38;;;15.20;73.71
32298;BME280;18782;48.984;8.548;2022-08-21T05:23:13;100102.44;;;15.13;74.32
32298;BME280;18782;48.984;8.548;2022-08-21T05:25:41;100101.69;;;15.28;73.60
32298;BME280;18782;48.984;8.548;2022-08-21T05:28:11;100107.84;;;15.43;73.05
32298;BME280;18782;48.984;8.548;2022-08-21T05:30:41;100096.75;;;15.62;72.86
32298;BME280;18782;48.984;8.548;2022-08-21T05:33:08;100103.81;;;15.81;72.11
32298;BME280;18782;48.984;8.548;2022-08-21T05:35:38;100103.06;;;15.99;71.37
32298;BME280;18782;48.984;8.548;2022-08-21T05:38:06;100098.78;;;16.15;70.86
32298;BME280;18782;48.984;8.548;2022-08-21T05:40:44;100100.53;;;16.22;69.67
32298;BME280;18782;48.984;8.548;2022-08-21T05:43:12;100091.84;;;16.12;70.15
32298;BME280;18782;48.984;8.548;2022-08-21T05:45:42;100092.72;;;16.16;69.44
32298;BME280;18782;48.984;8.548;2022-08-21T05:48:12;100095.34;;;16.19;69.87
32298;BME280;18782;48.984;8.548;2022-08-21T05:50:40;100097.97;;;16.27;70.30
32298;BME280;18782;48.984;8.548;2022-08-21T05:53:08;100089.31;;;16.26;70.11
32298;BME280;18782;48.984;8.548;2022-08-21T05:55:37;100091.03;;;16.23;69.96
32298;BME280;18782;48.984;8.548;2022-08-21T05:58:10;100091.03;;;16.21;69.90
32298;BME280;18782;48.984;8.548;2022-08-21T06:00:38;100088.41;;;16.15;70.65
32298;BME280;18782;48.984;8.548;2022-08-21T06:03:12;100097.97;;;16.28;69.86
32298;BME280;18782;48.984;8.548;2022-08-21T06:05:40;100094.53;;;16.35;70.39
32298;BME280;18782;48.984;8.548;2022-08-21T06:08:07;100089.38;;;16.48;69.82
32298;BME280;18782;48.984;8.548;2022-08-21T06:10:35;100085.06;;;16.59;69.70
32298;BME280;18782;48.984;8.548;2022-08-21T06:13:03;100085.06;;;16.65;69.58
32298;BME280;18782;48.984;8.548;2022-08-21T06:15:31;100080.81;;;16.78;69.19
32298;BME280;18782;48.984;8.548;2022-08-21T06:17:58;100091.22;;;16.93;68.56
32298;BME280;18782;48.984;8.548;2022-08-21T06:20:28;100090.38;;;17.12;67.94
32298;BME280;18782;48.984;8.548;2022-08-21T06:22:55;100084.28;;;17.27;67.68
32298;BME280;18782;48.984;8.548;2022-08-21T06:25:24;100092.97;;;17.40;67.26
32298;BME280;18782;48.984;8.548;2022-08-21T06:27:52;100092.94;;;17.57;67.01
32298;BME280;18782;48.984;8.548;2022-08-21T06:30:20;100095.50;;;17.72;66.68
32298;BME280;18782;48.984;8.548;2022-08-21T06:32:47;100092.03;;;17.87;66.11
32298;BME280;18782;48.984;8.548;2022-08-21T06:35:15;100093.72;;;17.98;65.65
32298;BME280;18782;48.984;8.548;2022-08-21T06:37:44;100084.13;;;18.13;64.88
32298;BME280;18782;48.984;8.548;2022-08-21T06:40:12;100086.69;;;18.25;65.21
32298;BME280;18782;48.984;8.548;2022-08-21T06:42:40;100084.00;;;18.36;64.97
32298;BME280;18782;48.984;8.548;2022-08-21T06:45:08;100084.75;;;18.58;64.00
32298;BME280;18782;48.984;8.548;2022-08-21T06:47:36;100078.63;;;18.75;63.47
32298;BME280;18782;48.984;8.548;2022-08-21T06:50:05;100081.97;;;18.88;62.82
32298;BME280;18782;48.984;8.548;2022-08-21T06:52:34;100088.84;;;19.03;62.29
32298;BME280;18782;48.984;8.548;2022-08-21T06:55:05;100089.59;;;19.16;61.53
32298;BME280;18782;48.984;8.548;2022-08-21T06:57:33;100088.66;;;19.27;61.49
32298;BME280;18782;48.984;8.548;2022-08-21T07:00:01;100084.16;;;19.40;61.24
32298;BME280;18782;48.984;8.548;2022-08-21T07:02:29;100088.34;;;19.56;62.28
32298;BME280;18782;48.984;8.548;2022-08-21T07:04:57;100087.47;;;19.64;61.63
32298;BME280;18782;48.984;8.548;2022-08-21T07:07:25;100083.91;;;19.71;62.46
32298;BME280;18782;48.984;8.548;2022-08-21T07:09:53;100083.81;;;19.77;61.60
32298;BME280;18782;48.984;8.548;2022-08-21T07:12:22;100076.78;;;19.85;62.28
32298;BME280;18782;48.984;8.548;2022-08-21T07:14:49;100083.66;;;19.92;61.78
32298;BME280;18782;48.984;8.548;2022-08-21T07:17:17;100078.41;;;19.95;61.54
32298;BME280;18782;48.984;8.548;2022-08-21T07:19:45;100079.13;;;20.06;61.36
32298;BME280;18782;48.984;8.548;2022-08-21T07:22:19;100080.72;;;20.18;61.08
32298;BME280;18782;48.984;8.548;2022-08-21T07:24:47;100085.78;;;20.30;60.27
32298;BME280;18782;48.984;8.548;2022-08-21T07:27:15;100083.00;;;20.44;59.21
32298;BME280;18782;48.984;8.548;2022-08-21T07:29:44;100076.91;;;20.44;56.71
32298;BME280;18782;48.984;8.548;2022-08-21T07:32:11;100073.25;;;20.58;58.45
32298;BME280;18782;48.984;8.548;2022-08-21T07:34:46;100073.34;;;20.52;56.87
32298;BME280;18782;48.984;8.548;2022-08-21T07:37:14;100071.66;;;20.48;57.35
32298;BME280;18782;48.984;8.548;2022-08-21T07:39:42;100069.84;;;20.53;58.03
32298;BME280;18782;48.984;8.548;2022-08-21T07:42:10;100068.81;;;20.64;58.04
32298;BME280;18782;48.984;8.548;2022-08-21T07:44:38;100073.81;;;20.79;57.76
32298;BME280;18782;48.984;8.548;2022-08-21T07:47:07;100070.13;;;20.92;57.99
32298;BME280;18782;48.984;8.548;2022-08-21T07:49:34;100073.47;;;21.00;57.14
32298;BME280;18782;48.984;8.548;2022-08-21T07:52:02;100061.19;;;21.05;56.54
32298;BME280;18782;48.984;8.548;2022-08-21T07:54:30;100063.72;;;21.10;56.55
32298;BME280;18782;48.984;8.548;2022-08-21T07:56:59;100069.63;;;21.23;56.61
32298;BME280;18782;48.984;8.548;2022-08-21T07:59:27;100070.34;;;21.32;56.76
32298;BME280;18782;48.984;8.548;2022-08-21T08:01:55;100064.19;;;21.35;56.79
32298;BME280;18782;48.984;8.548;2022-08-21T08:04:24;100061.56;;;21.35;55.56
32298;BME280;18782;48.984;8.548;2022-08-21T08:06:52;100062.34;;;21.40;55.59
32298;BME280;18782;48.984;8.548;2022-08-21T08:09:20;100060.50;;;21.45;56.00
32298;BME280;18782;48.984;8.548;2022-08-21T08:11:47;100056.03;;;21.52;56.20
32298;BME280;18782;48.984;8.548;2022-08-21T08:14:16;100052.53;;;21.53;54.80
32298;BME280;18782;48.984;8.548;2022-08-21T08:16:44;100046.28;;;21.60;55.38
32298;BME280;18782;48.984;8.548;2022-08-21T08:19:11;100044.41;;;21.67;54.92
32298;BME280;18782;48.984;8.548;2022-08-21T08:21:40;100043.44;;;21.71;53.91
32298;BME280;18782;48.984;8.548;2022-08-21T08:24:08;100043.47;;;21.69;52.85
32298;BME280;18782;48.984;8.548;2022-08-21T08:26:45;100039.84;;;21.76;53.61
32298;BME280;18782;48.984;8.548;2022-08-21T08:29:19;100041.38;;;21.86;53.86
32298;BME280;18782;48.984;8.548;2022-08-21T08:31:47;100038.50;;;22.00;53.02
32298;BME280;18782;48.984;8.548;2022-08-21T08:34:16;100038.31;;;22.09;53.04
32298;BME280;18782;48.984;8.548;2022-08-21T08:36:52;100031.09;;;22.21;53.17
32298;BME280;18782;48.984;8.548;2022-08-21T08:39:20;100029.97;;;22.32;51.72
32298;BME280;18782;48.984;8.548;2022-08-21T08:41:59;100033.13;;;22.47;51.63
32298;BME280;18782;48.984;8.548;2022-08-21T08:44:49;100029.44;;;22.55;51.42
32298;BME280;18782;48.984;8.548;2022-08-21T08:47:21;100031.69;;;22.71;50.22
32298;BME280;18782;48.984;8.548;2022-08-21T08:49:54;100027.09;;;22.80;49.40
32298;BME280;18782;48.984;8.548;2022-08-21T08:52:27;100020.88;;;22.84;49.10
32298;BME280;18782;48.984;8.548;2022-08-21T08:55:02;100026.75;;;22.96;49.18
32298;BME280;18782;48.984;8.548;2022-08-21T08:57:32;100020.41;;;23.04;48.72
32298;BME280;18782;48.984;8.548;2022-08-21T09:00:05;100021.84;;;23.16;48.58
32298;BME280;18782;48.984;8.548;2022-08-21T09:02:42;100013.72;;;23.25;48.58
32298;BME280;18782;48.984;8.548;2022-08-21T09:05:20;100005.56;;;23.36;48.38
32298;BME280;18782;48.984;8.548;2022-08-21T09:07:58;100008.88;;;23.44;47.69
32298;BME280;18782;48.984;8.548;2022-08-21T09:10:36;100000.69;;;23.55;47.62
32298;BME280;18782;48.984;8.548;2022-08-21T09:13:21;99999.56;;;23.63;48.60
32298;BME280;18782;48.984;8.548;2022-08-21T09:15:56;99988.63;;;23.79;47.89
32298;BME280;18782;48.984;8.548;2022-08-21T09:18:38;99988.28;;;23.91;47.89
32298;BME280;18782;48.984;8.548;2022-08-21T09:21:16;99994.16;;;23.99;47.19
32298;BME280;18782;48.984;8.548;2022-08-21T09:23:54;99983.25;;;24.11;46.96
32298;BME280;18782;48.984;8.548;2022-08-21T09:26:25;99983.13;;;24.16;46.25
32298;BME280;18782;48.984;8.548;2022-08-21T09:28:56;99979.44;;;24.21;44.53
32298;BME280;18782;48.984;8.548;2022-08-21T09:31:27;99980.06;;;24.30;45.03
32298;BME280;18782;48.984;8.548;2022-08-21T09:33:59;99979.72;;;24.42;45.72
32298;BME280;18782;48.984;8.548;2022-08-21T09:36:33;99974.94;;;24.55;44.15
32298;BME280;18782;48.984;8.548;2022-08-21T09:39:04;99968.31;;;24.69;44.22
32298;BME280;18782;48.984;8.548;2022-08-21T09:41:34;99975.09;;;24.77;43.23
32298;BME280;18782;48.984;8.548;2022-08-21T09:44:03;99970.22;;;24.91;42.97
32298;BME280;18782;48.984;8.548;2022-08-21T09:46:32;99967.22;;;25.02;42.49
32298;BME280;18782;48.984;8.548;2022-08-21T09:49:02;99972.00;;;25.17;43.00
32298;BME280;18782;48.984;8.548;2022-08-21T09:51:49;99966.66;;;25.43;41.23
32298;BME280;18782;48.984;8.548;2022-08-21T09:54:20;99965.56;;;25.49;40.22
32298;BME280;18782;48.984;8.548;2022-08-21T09:56:55;99963.50;;;25.57;40.16
32298;BME280;18782;48.984;8.548;2022-08-21T09:59:42;99965.53;;;25.74;39.65
32298;BME280;18782;48.984;8.548;2022-08-21T10:02:26;99958.56;;;25.48;39.67
32298;BME280;18782;48.984;8.548;2022-08-21T10:04:57;99957.31;;;25.58;40.51
32298;BME280;18782;48.984;8.548;2022-08-21T10:07:29;99958.44;;;25.51;39.47
32298;BME280;18782;48.984;8.548;2022-08-21T10:10:02;99959.50;;;25.70;40.50
32298;BME280;18782;48.984;8.548;2022-08-21T10:12:40;99954.91;;;25.99;40.70
32298;BME280;18782;48.984;8.548;2022-08-21T10:15:17;99957.88;;;26.13;38.77
32298;BME280;18782;48.984;8.548;2022-08-21T10:17:54;99949.41;;;26.05;38.67
32298;BME280;18782;48.984;8.548;2022-08-21T10:20:30;99949.03;;;26.14;38.37
32298;BME280;18782;48.984;8.548;2022-08-21T10:23:07;99942.22;;;26.31;38.68
32298;BME280;18782;48.984;8.548;2022-08-21T10:25:48;99939.13;;;26.41;37.37
32298;BME280;18782;48.984;8.548;2022-08-21T10:28:44;99933.50;;;26.52;37.11
32298;BME280;18782;48.984;8.548;2022-08-21T10:31:21;99940.72;;;26.47;36.66
32298;BME280;18782;48.984;8.548;2022-08-21T10:34:05;99939.13;;;26.43;36.35
32298;BME280;18782;48.984;8.548;2022-08-21T10:36:39;99927.66;;;26.44;36.62
32298;BME280;18782;48.984;8.548;2022-08-21T10:39:19;99928.28;;;26.71;37.24
32298;BME280;18782;48.984;8.548;2022-08-21T10:42:16;99934.13;;;26.99;36.79
32298;BME280;18782;48.984;8.548;2022-08-21T10:45:02;99930.34;;;27.25;36.56
32298;BME280;18782;48.984;8.548;2022-08-21T10:47:36;99920.88;;;27.59;34.80
32298;BME280;18782;48.984;8.548;2022-08-21T10:50:09;99927.84;;;27.80;34.72
32298;BME280;18782;48.984;8.548;2022-08-21T10:52:52;99922.59;;;28.17;34.55
32298;BME280;18782;48.984;8.548;2022-08-21T10:55:23;99918.97;;;28.19;33.25
32298;BME280;18782;48.984;8.548;2022-08-21T10:57:58;99920.19;;;28.29;34.00
32298;BME280;18782;48.984;8.548;2022-08-21T11:00:29;99920.91;;;28.52;33.04
32298;BME280;18782;48.984;8.548;2022-08-21T11:03:04;99924.72;;;28.27;32.92
32298;BME280;18782;48.984;8.548;2022-08-21T11:05:35;99918.47;;;28.28;33.30
32298;BME280;18782;48.984;8.548;2022-08-21T11:08:09;99904.63;;;28.42;34.12
32298;BME280;18782;48.984;8.548;2022-08-21T11:10:42;99907.41;;;28.39;32.36
32298;BME280;18782;48.984;8.548;2022-08-21T11:13:43;99903.63;;;28.26;32.45
32298;BME280;18782;48.984;8.548;2022-08-21T11:16:18;99896.75;;;28.41;33.42
32298;BME280;18782;48.984;8.548;2022-08-21T11:18:53;99900.03;;;28.63;33.28
32298;BME280;18782;48.984;8.548;2022-08-21T11:21:32;99891.59;;;28.90;32.08
32298;BME280;18782;48.984;8.548;2022-08-21T11:24:14;99898.63;;;28.56;31.88
32298;BME280;18782;48.984;8.548;2022-08-21T11:26:45;99891.31;;;28.61;33.45
32298;BME280;18782;48.984;8.548;2022-08-21T11:29:21;99892.09;;;28.98;32.40
32298;BME280;18782;48.984;8.548;2022-08-21T11:32:00;99891.09;;;29.16;31.28
32298;BME280;18782;48.984;8.548;2022-08-21T11:34:41;99883.63;;;29.24;30.31
32298;BME280;18782;48.984;8.548;2022-08-21T11:37:17;99882.59;;;29.43;29.81
32298;BME280;18782;48.984;8.548;2022-08-21T11:39:57;99876.53;;;29.41;29.76
32298;BME280;18782;48.984;8.548;2022-08-21T11:42:32;99887.31;;;29.86;29.76
32298;BME280;18782;48.984;8.548;2022-08-21T11:45:16;99876.13;;;30.27;29.32
32298;BME280;18782;48.984;8.548;2022-08-21T11:47:54;99869.91;;;30.28;29.09
32298;BME280;18782;48.984;8.548;2022-08-21T11:50:27;99876.28;;;30.40;28.63
32298;BME280;18782;48.984;8.548;2022-08-21T11:53:05;99870.88;;;30.72;28.92
32298;BME280;18782;48.984;8.548;2022-08-21T11:55:39;99873.66;;;30.70;27.72
32298;BME280;18782;48.984;8.548;2022-08-21T11:58:10;99869.13;;;31.15;28.07
32298;BME280;18782;48.984;8.548;2022-08-21T12:00:42;99866.06;;;31.64;27.88
32298;BME280;18782;48.984;8.548;2022-08-21T12:03:14;99862.78;;;31.87;26.66
32298;BME280;18782;48.984;8.548;2022-08-21T12:05:52;99863.00;;;31.70;25.76
32298;BME280;18782;48.984;8.548;2022-08-21T12:08:27;99854.50;;;31.36;26.20
32298;BME280;18782;48.984;8.548;2022-08-21T12:11:01;99858.66;;;31.69;26.37
32298;BME280;18782;48.984;8.548;2022-08-21T12:13:31;99853.84;;;31.88;26.22
32298;BME280;18782;48.984;8.548;2022-08-21T12:16:10;99837.00;;;31.61;26.40
32298;BME280;18782;48.984;8.548;2022-08-21T12:18:38;99848.63;;;32.14;26.88
32298;BME280;18782;48.984;8.548;2022-08-21T12:21:20;99840.00;;;32.88;25.97
32298;BME280;18782;48.984;8.548;2022-08-21T12:23:59;99831.63;;;33.57;24.67
32298;BME280;18782;48.984;8.548;2022-08-21T12:26:30;99844.16;;;34.28;24.83
32298;BME280;18782;48.984;8.548;2022-08-21T12:29:12;99839.44;;;34.78;23.15
32298;BME280;18782;48.984;8.548;2022-08-21T12:31:59;99839.47;;;34.89;23.59
32298;BME280;18782;48.984;8.548;2022-08-21T12:34:34;99841.66;;;35.29;22.32
32298;BME280;18782;48.984;8.548;2022-08-21T12:37:05;99843.63;;;35.04;22.06
32298;BME280;18782;48.984;8.548;2022-08-21T12:39:36;99833.59;;;35.74;21.66
32298;BME280;18782;48.984;8.548;2022-08-21T12:42:10;99832.19;;;36.34;21.50
32298;BME280;18782;48.984;8.548;2022-08-21T12:44:45;99836.03;;;36.62;21.35
32298;BME280;18782;48.984;8.548;2022-08-21T12:47:17;99822.38;;;37.26;20.33
32298;BME280;18782;48.984;8.548;2022-08-21T12:49:54;99825.63;;;37.60;19.13
32298;BME280;18782;48.984;8.548;2022-08-21T12:52:29;99815.50;;;38.12;19.06
32298;BME280;18782;48.984;8.548;2022-08-21T12:55:05;99822.41;;;38.54;19.05
32298;BME280;18782;48.984;8.548;2022-08-21T12:57:35;99815.78;;;38.09;19.39
32298;BME280;18782;48.984;8.548;2022-08-21T13:00:06;99819.31;;;38.39;18.61
32298;BME280;18782;48.984;8.548;2022-08-21T13:02:38;99825.25;;;37.84;18.75
32298;BME280;18782;48.984;8.548;2022-08-21T13:05:14;99817.69;;;37.69;18.28
32298;BME280;18782;48.984;8.548;2022-08-21T13:07:45;99810.66;;;37.18;18.76
32298;BME280;18782;48.984;8.548;2022-08-21T13:10:18;99814.47;;;36.64;19.25
32298;BME280;18782;48.984;8.548;2022-08-21T13:12:48;99807.19;;;36.33;19.60
32298;BME280;18782;48.984;8.548;2022-08-21T13:15:23;99817.22;;;36.52;20.01